sensor_id;sensor_type;location;lat;lon;timestamp;P1;durP1;ratioP1;P2;durP2;ratioP2
41446;SDS011;27185;52.040;4.490;2023-04-06T00:01:45;39.97;;;21.00;;
41446;SDS011;27185;52.040;4.490;2023-04-06T00:04:31;35.58;;;19.65;;
41446;SDS011;27185;52.040;4.490;2023-04-06T00:07:17;31.40;;;17.95;;
41446;SDS011;27185;52.040;4.490;2023-04-06T00:10:03;35.42;;;19.48;;
41446;SDS011;27185;52.040;4.490;2023-04-06T00:12:49;31.45;;;18.05;;
41446;SDS011;27185;52.040;4.490;2023-04-06T00:15:34;36.08;;;18.58;;
41446;SDS011;27185;52.040;4.490;2023-04-06T00:18:20;31.27;;;18.23;;
41446;SDS011;27185;52.040;4.490;2023-04-06T00:21:05;32.38;;;18.17;;
41446;SDS011;27185;52.040;4.490;2023-04-06T00:23:51;31.60;;;18.40;;
41446;SDS011;27185;52.040;4.490;2023-04-06T00:26:37;26.80;;;16.35;;
41446;SDS011;27185;52.040;4.490;2023-04-06T00:29:22;27.50;;;16.38;;
41446;SDS011;27185;52.040;4.490;2023-04-06T00:32:08;25.83;;;15.02;;
41446;SDS011;27185;52.040;4.490;2023-04-06T00:34:54;27.05;;;15.00;;
41446;SDS011;27185;52.040;4.490;2023-04-06T00:37:39;26.88;;;15.20;;
41446;SDS011;27185;52.040;4.490;2023-04-06T00:40:25;26.05;;;14.70;;
41446;SDS011;27185;52.040;4.490;2023-04-06T00:43:12;24.27;;;14.48;;
41446;SDS011;27185;52.040;4.490;2023-04-06T00:45:58;23.05;;;13.32;;
41446;SDS011;27185;52.040;4.490;2023-04-06T00:48:44;21.88;;;12.93;;
41446;SDS011;27185;52.040;4.490;2023-04-06T00:51:29;20.38;;;12.65;;
41446;SDS011;27185;52.040;4.490;2023-04-06T00:54:15;23.75;;;13.50;;
41446;SDS011;27185;52.040;4.490;2023-04-06T00:57:01;19.73;;;12.45;;
41446;SDS011;27185;52.040;4.490;2023-04-06T00:59:46;23.30;;;13.13;;
41446;SDS011;27185;52.040;4.490;2023-04-06T01:02:32;20.42;;;12.32;;
41446;SDS011;27185;52.040;4.490;2023-04-06T01:05:18;18.88;;;12.30;;
41446;SDS011;27185;52.040;4.490;2023-04-06T01:08:03;18.45;;;11.50;;
41446;SDS011;27185;52.040;4.490;2023-04-06T01:10:49;20.27;;;11.30;;
41446;SDS011;27185;52.040;4.490;2023-04-06T01:13:35;17.33;;;11.52;;
41446;SDS011;27185;52.040;4.490;2023-04-06T01:16:21;19.17;;;11.00;;
41446;SDS011;27185;52.040;4.490;2023-04-06T01:19:10;17.42;;;10.93;;
41446;SDS011;27185;52.040;4.490;2023-04-06T01:21:57;17.20;;;10.95;;
41446;SDS011;27185;52.040;4.490;2023-04-06T01:24:42;17.13;;;10.85;;
41446;SDS011;27185;52.040;4.490;2023-04-06T01:27:28;20.90;;;12.32;;
41446;SDS011;27185;52.040;4.490;2023-04-06T01:30:14;21.98;;;10.93;;
41446;SDS011;27185;52.040;4.490;2023-04-06T01:33:02;18.23;;;10.93;;
41446;SDS011;27185;52.040;4.490;2023-04-06T01:35:47;21.33;;;11.32;;
41446;SDS011;27185;52.040;4.490;2023-04-06T01:38:33;16.45;;;11.20;;
41446;SDS011;27185;52.040;4.490;2023-04-06T01:41:19;19.10;;;9.85;;
41446;SDS011;27185;52.040;4.490;2023-04-06T01:44:04;16.45;;;10.23;;
41446;SDS011;27185;52.040;4.490;2023-04-06T01:46:50;16.58;;;10.80;;
41446;SDS011;27185;52.040;4.490;2023-04-06T01:49:36;14.80;;;9.52;;
41446;SDS011;27185;52.040;4.490;2023-04-06T01:52:21;18.83;;;10.40;;
41446;SDS011;27185;52.040;4.490;2023-04-06T01:55:07;20.00;;;10.65;;
41446;SDS011;27185;52.040;4.490;2023-04-06T01:57:52;17.55;;;10.75;;
41446;SDS011;27185;52.040;4.490;2023-04-06T02:00:38;15.35;;;9.65;;
41446;SDS011;27185;52.040;4.490;2023-04-06T02:03:24;15.57;;;9.82;;
41446;SDS011;27185;52.040;4.490;2023-04-06T02:06:10;15.75;;;10.18;;
41446;SDS011;27185;52.040;4.490;2023-04-06T02:08:55;16.20;;;10.45;;
41446;SDS011;27185;52.040;4.490;2023-04-06T02:11:41;18.55;;;10.48;;
41446;SDS011;27185;52.040;4.490;2023-04-06T02:14:26;14.10;;;9.13;;
41446;SDS011;27185;52.040;4.490;2023-04-06T02:17:12;17.23;;;9.98;;
41446;SDS011;27185;52.040;4.490;2023-04-06T02:19:58;16.63;;;9.98;;
41446;SDS011;27185;52.040;4.490;2023-04-06T02:22:43;17.75;;;10.02;;
41446;SDS011;27185;52.040;4.490;2023-04-06T02:25:29;14.57;;;9.60;;
41446;SDS011;27185;52.040;4.490;2023-04-06T02:28:15;17.55;;;11.32;;
41446;SDS011;27185;52.040;4.490;2023-04-06T02:31:00;16.92;;;9.35;;
41446;SDS011;27185;52.040;4.490;2023-04-06T02:33:46;14.55;;;9.32;;
41446;SDS011;27185;52.040;4.490;2023-04-06T02:36:31;13.82;;;8.80;;
41446;SDS011;27185;52.040;4.490;2023-04-06T02:39:17;21.80;;;10.27;;
41446;SDS011;27185;52.040;4.490;2023-04-06T02:42:02;16.75;;;10.57;;
41446;SDS011;27185;52.040;4.490;2023-04-06T02:44:48;14.02;;;9.27;;
41446;SDS011;27185;52.040;4.490;2023-04-06T02:47:33;17.45;;;10.00;;
41446;SDS011;27185;52.040;4.490;2023-04-06T02:50:19;15.82;;;10.60;;
41446;SDS011;27185;52.040;4.490;2023-04-06T02:53:05;15.05;;;9.75;;
41446;SDS011;27185;52.040;4.490;2023-04-06T02:55:50;16.80;;;10.38;;
41446;SDS011;27185;52.040;4.490;2023-04-06T02:58:36;16.80;;;10.48;;
41446;SDS011;27185;52.040;4.490;2023-04-06T03:01:21;18.42;;;11.60;;
41446;SDS011;27185;52.040;4.490;2023-04-06T03:04:07;17.77;;;10.63;;
41446;SDS011;27185;52.040;4.490;2023-04-06T03:06:53;17.98;;;10.93;;
41446;SDS011;27185;52.040;4.490;2023-04-06T03:09:39;15.73;;;10.30;;
41446;SDS011;27185;52.040;4.490;2023-04-06T03:12:25;18.80;;;11.23;;
41446;SDS011;27185;52.040;4.490;2023-04-06T03:15:11;17.05;;;10.65;;
41446;SDS011;27185;52.040;4.490;2023-04-06T03:17:57;16.73;;;10.50;;
41446;SDS011;27185;52.040;4.490;2023-04-06T03:20:42;16.05;;;9.70;;
41446;SDS011;27185;52.040;4.490;2023-04-06T03:23:28;18.27;;;10.60;;
41446;SDS011;27185;52.040;4.490;2023-04-06T03:26:13;14.55;;;8.77;;
41446;SDS011;27185;52.040;4.490;2023-04-06T03:28:59;17.55;;;10.15;;
41446;SDS011;27185;52.040;4.490;2023-04-06T03:31:45;16.33;;;9.40;;
41446;SDS011;27185;52.040;4.490;2023-04-06T03:34:30;19.30;;;11.30;;
41446;SDS011;27185;52.040;4.490;2023-04-06T03:37:16;18.73;;;10.82;;
41446;SDS011;27185;52.040;4.490;2023-04-06T03:40:02;18.00;;;10.77;;
41446;SDS011;27185;52.040;4.490;2023-04-06T03:42:48;17.63;;;11.20;;
41446;SDS011;27185;52.040;4.490;2023-04-06T03:45:34;17.67;;;10.70;;
41446;SDS011;27185;52.040;4.490;2023-04-06T03:48:19;16.52;;;11.07;;
41446;SDS011;27185;52.040;4.490;2023-04-06T03:51:05;17.77;;;11.52;;
41446;SDS011;27185;52.040;4.490;2023-04-06T03:53:50;17.20;;;10.68;;
41446;SDS011;27185;52.040;4.490;2023-04-06T03:56:36;20.65;;;11.75;;
41446;SDS011;27185;52.040;4.490;2023-04-06T03:59:21;24.33;;;12.30;;
41446;SDS011;27185;52.040;4.490;2023-04-06T04:02:07;17.92;;;11.18;;
41446;SDS011;27185;52.040;4.490;2023-04-06T04:04:53;18.85;;;11.00;;
41446;SDS011;27185;52.040;4.490;2023-04-06T04:07:38;20.08;;;11.27;;
41446;SDS011;27185;52.040;4.490;2023-04-06T04:10:24;21.92;;;12.18;;
41446;SDS011;27185;52.040;4.490;2023-04-06T04:13:09;20.58;;;11.80;;
41446;SDS011;27185;52.040;4.490;2023-04-06T04:15:55;23.15;;;12.23;;
41446;SDS011;27185;52.040;4.490;2023-04-06T04:18:41;20.67;;;12.15;;
41446;SDS011;27185;52.040;4.490;2023-04-06T04:21:29;20.70;;;12.13;;
41446;SDS011;27185;52.040;4.490;2023-04-06T04:24:15;25.00;;;13.07;;
41446;SDS011;27185;52.040;4.490;2023-04-06T04:27:01;21.65;;;11.82;;
41446;SDS011;27185;52.040;4.490;2023-04-06T04:29:46;21.58;;;12.27;;
41446;SDS011;27185;52.040;4.490;2023-04-06T04:32:32;21.92;;;12.80;;
41446;SDS011;27185;52.040;4.490;2023-04-06T04:35:17;23.33;;;13.52;;
41446;SDS011;27185;52.040;4.490;2023-04-06T04:38:03;24.88;;;13.05;;
41446;SDS011;27185;52.040;4.490;2023-04-06T04:40:48;26.75;;;13.52;;
41446;SDS011;27185;52.040;4.490;2023-04-06T04:43:34;26.80;;;15.07;;
41446;SDS011;27185;52.040;4.490;2023-04-06T04:46:19;25.58;;;14.45;;
41446;SDS011;27185;52.040;4.490;2023-04-06T04:49:05;26.05;;;15.68;;
41446;SDS011;27185;52.040;4.490;2023-04-06T04:51:51;25.83;;;15.23;;
41446;SDS011;27185;52.040;4.490;2023-04-06T04:54:37;26.25;;;16.25;;
41446;SDS011;27185;52.040;4.490;2023-04-06T04:57:25;26.42;;;17.10;;
41446;SDS011;27185;52.040;4.490;2023-04-06T05:00:11;29.02;;;17.08;;
41446;SDS011;27185;52.040;4.490;2023-04-06T05:02:57;34.13;;;17.55;;
41446;SDS011;27185;52.040;4.490;2023-04-06T05:05:42;31.98;;;18.33;;
41446;SDS011;27185;52.040;4.490;2023-04-06T05:08:28;29.35;;;18.63;;
41446;SDS011;27185;52.040;4.490;2023-04-06T05:11:13;33.15;;;19.17;;
41446;SDS011;27185;52.040;4.490;2023-04-06T05:13:59;30.88;;;19.25;;
41446;SDS011;27185;52.040;4.490;2023-04-06T05:16:45;35.10;;;19.77;;
41446;SDS011;27185;52.040;4.490;2023-04-06T05:19:30;35.35;;;19.92;;
41446;SDS011;27185;52.040;4.490;2023-04-06T05:22:16;33.42;;;18.98;;
41446;SDS011;27185;52.040;4.490;2023-04-06T05:25:02;30.63;;;19.52;;
41446;SDS011;27185;52.040;4.490;2023-04-06T05:27:48;33.13;;;18.65;;
41446;SDS011;27185;52.040;4.490;2023-04-06T05:30:34;34.08;;;19.40;;
41446;SDS011;27185;52.040;4.490;2023-04-06T05:33:20;35.08;;;18.92;;
41446;SDS011;27185;52.040;4.490;2023-04-06T05:36:06;39.80;;;20.05;;
41446;SDS011;27185;52.040;4.490;2023-04-06T05:38:52;33.90;;;19.70;;
41446;SDS011;27185;52.040;4.490;2023-04-06T05:41:37;36.17;;;20.92;;
41446;SDS011;27185;52.040;4.490;2023-04-06T05:44:23;35.13;;;21.20;;
41446;SDS011;27185;52.040;4.490;2023-04-06T05:47:09;33.85;;;20.15;;
41446;SDS011;27185;52.040;4.490;2023-04-06T05:49:54;33.20;;;21.17;;
41446;SDS011;27185;52.040;4.490;2023-04-06T05:52:40;39.67;;;22.63;;
41446;SDS011;27185;52.040;4.490;2023-04-06T05:55:28;38.50;;;22.10;;
41446;SDS011;27185;52.040;4.490;2023-04-06T05:58:13;37.72;;;23.08;;
41446;SDS011;27185;52.040;4.490;2023-04-06T06:00:59;44.13;;;25.75;;
41446;SDS011;27185;52.040;4.490;2023-04-06T06:03:45;40.03;;;22.80;;
41446;SDS011;27185;52.040;4.490;2023-04-06T06:06:31;41.00;;;25.35;;
41446;SDS011;27185;52.040;4.490;2023-04-06T06:09:17;35.85;;;20.92;;
41446;SDS011;27185;52.040;4.490;2023-04-06T06:12:03;42.00;;;22.75;;
41446;SDS011;27185;52.040;4.490;2023-04-06T06:14:49;37.28;;;23.08;;
41446;SDS011;27185;52.040;4.490;2023-04-06T06:17:34;39.20;;;23.58;;
41446;SDS011;27185;52.040;4.490;2023-04-06T06:20:20;40.80;;;25.38;;
41446;SDS011;27185;52.040;4.490;2023-04-06T06:23:06;40.63;;;24.90;;
41446;SDS011;27185;52.040;4.490;2023-04-06T06:25:51;42.55;;;25.77;;
41446;SDS011;27185;52.040;4.490;2023-04-06T06:28:37;48.40;;;27.25;;
41446;SDS011;27185;52.040;4.490;2023-04-06T06:31:22;49.13;;;26.40;;
41446;SDS011;27185;52.040;4.490;2023-04-06T06:34:09;40.13;;;24.73;;
41446;SDS011;27185;52.040;4.490;2023-04-06T06:36:55;42.03;;;25.52;;
41446;SDS011;27185;52.040;4.490;2023-04-06T06:39:40;41.78;;;25.65;;
41446;SDS011;27185;52.040;4.490;2023-04-06T06:42:26;41.70;;;25.67;;
41446;SDS011;27185;52.040;4.490;2023-04-06T06:45:11;43.10;;;24.58;;
41446;SDS011;27185;52.040;4.490;2023-04-06T06:47:57;41.22;;;22.98;;
41446;SDS011;27185;52.040;4.490;2023-04-06T06:50:43;36.88;;;21.20;;
41446;SDS011;27185;52.040;4.490;2023-04-06T06:53:28;37.97;;;22.10;;
41446;SDS011;27185;52.040;4.490;2023-04-06T06:56:14;42.40;;;23.70;;
41446;SDS011;27185;52.040;4.490;2023-04-06T06:58:59;41.83;;;25.30;;
41446;SDS011;27185;52.040;4.490;2023-04-06T07:01:45;41.70;;;25.25;;
41446;SDS011;27185;52.040;4.490;2023-04-06T07:04:31;40.97;;;25.08;;
41446;SDS011;27185;52.040;4.490;2023-04-06T07:07:16;40.55;;;25.00;;
41446;SDS011;27185;52.040;4.490;2023-04-06T07:10:02;41.85;;;24.60;;
41446;SDS011;27185;52.040;4.490;2023-04-06T07:12:48;34.33;;;23.05;;
41446;SDS011;27185;52.040;4.490;2023-04-06T07:15:33;41.55;;;24.58;;
41446;SDS011;27185;52.040;4.490;2023-04-06T07:18:19;43.97;;;26.02;;
41446;SDS011;27185;52.040;4.490;2023-04-06T07:21:05;36.88;;;21.73;;
41446;SDS011;27185;52.040;4.490;2023-04-06T07:23:51;34.50;;;22.80;;
41446;SDS011;27185;52.040;4.490;2023-04-06T07:26:36;34.10;;;21.40;;
41446;SDS011;27185;52.040;4.490;2023-04-06T07:29:22;42.20;;;25.20;;
41446;SDS011;27185;52.040;4.490;2023-04-06T07:32:08;37.75;;;23.20;;
41446;SDS011;27185;52.040;4.490;2023-04-06T07:34:53;34.45;;;22.10;;
41446;SDS011;27185;52.040;4.490;2023-04-06T07:37:40;36.25;;;21.35;;
41446;SDS011;27185;52.040;4.490;2023-04-06T07:40:27;32.75;;;21.25;;
41446;SDS011;27185;52.040;4.490;2023-04-06T07:43:12;33.80;;;20.38;;
41446;SDS011;27185;52.040;4.490;2023-04-06T07:45:58;31.05;;;20.38;;
41446;SDS011;27185;52.040;4.490;2023-04-06T07:48:45;30.13;;;19.20;;
41446;SDS011;27185;52.040;4.490;2023-04-06T07:51:30;33.13;;;20.63;;
41446;SDS011;27185;52.040;4.490;2023-04-06T07:54:16;30.73;;;20.10;;
41446;SDS011;27185;52.040;4.490;2023-04-06T07:57:02;28.25;;;19.23;;
41446;SDS011;27185;52.040;4.490;2023-04-06T07:59:48;31.80;;;19.35;;
41446;SDS011;27185;52.040;4.490;2023-04-06T08:02:33;36.80;;;20.45;;
41446;SDS011;27185;52.040;4.490;2023-04-06T08:05:19;28.05;;;18.63;;
41446;SDS011;27185;52.040;4.490;2023-04-06T08:08:05;32.33;;;21.33;;
41446;SDS011;27185;52.040;4.490;2023-04-06T08:10:51;26.05;;;19.10;;
41446;SDS011;27185;52.040;4.490;2023-04-06T08:13:36;33.25;;;21.55;;
41446;SDS011;27185;52.040;4.490;2023-04-06T08:16:22;35.22;;;22.33;;
41446;SDS011;27185;52.040;4.490;2023-04-06T08:19:08;37.78;;;26.02;;
41446;SDS011;27185;52.040;4.490;2023-04-06T08:21:54;40.33;;;27.05;;
41446;SDS011;27185;52.040;4.490;2023-04-06T08:24:39;39.65;;;27.55;;
41446;SDS011;27185;52.040;4.490;2023-04-06T08:27:25;36.97;;;25.75;;
41446;SDS011;27185;52.040;4.490;2023-04-06T08:30:11;41.97;;;26.05;;
41446;SDS011;27185;52.040;4.490;2023-04-06T08:32:57;40.50;;;27.20;;
41446;SDS011;27185;52.040;4.490;2023-04-06T08:35:42;44.33;;;27.83;;
41446;SDS011;27185;52.040;4.490;2023-04-06T08:38:28;41.60;;;27.33;;
41446;SDS011;27185;52.040;4.490;2023-04-06T08:41:13;39.63;;;26.15;;
41446;SDS011;27185;52.040;4.490;2023-04-06T08:44:00;32.97;;;22.58;;
41446;SDS011;27185;52.040;4.490;2023-04-06T08:46:47;35.27;;;22.90;;
41446;SDS011;27185;52.040;4.490;2023-04-06T08:49:32;29.88;;;18.33;;
41446;SDS011;27185;52.040;4.490;2023-04-06T08:52:19;30.50;;;19.65;;
41446;SDS011;27185;52.040;4.490;2023-04-06T08:55:05;31.02;;;17.73;;
41446;SDS011;27185;52.040;4.490;2023-04-06T08:57:51;27.45;;;17.20;;
41446;SDS011;27185;52.040;4.490;2023-04-06T09:00:40;36.22;;;21.10;;
41446;SDS011;27185;52.040;4.490;2023-04-06T09:03:27;31.92;;;19.23;;
41446;SDS011;27185;52.040;4.490;2023-04-06T09:06:14;35.88;;;21.02;;
41446;SDS011;27185;52.040;4.490;2023-04-06T09:09:00;27.40;;;16.75;;
41446;SDS011;27185;52.040;4.490;2023-04-06T09:11:49;28.20;;;14.80;;
41446;SDS011;27185;52.040;4.490;2023-04-06T09:14:36;26.50;;;13.88;;
41446;SDS011;27185;52.040;4.490;2023-04-06T09:17:23;21.17;;;13.48;;
41446;SDS011;27185;52.040;4.490;2023-04-06T09:20:10;22.30;;;10.80;;
41446;SDS011;27185;52.040;4.490;2023-04-06T09:22:56;16.30;;;10.25;;
41446;SDS011;27185;52.040;4.490;2023-04-06T09:25:42;16.90;;;10.50;;
41446;SDS011;27185;52.040;4.490;2023-04-06T09:28:28;15.48;;;8.75;;
41446;SDS011;27185;52.040;4.490;2023-04-06T09:31:14;19.20;;;11.57;;
41446;SDS011;27185;52.040;4.490;2023-04-06T09:34:00;15.77;;;10.52;;
41446;SDS011;27185;52.040;4.490;2023-04-06T09:36:46;19.63;;;11.82;;
41446;SDS011;27185;52.040;4.490;2023-04-06T09:39:32;15.57;;;9.68;;
41446;SDS011;27185;52.040;4.490;2023-04-06T09:42:24;14.65;;;9.27;;
41446;SDS011;27185;52.040;4.490;2023-04-06T09:45:10;17.13;;;10.02;;
41446;SDS011;27185;52.040;4.490;2023-04-06T09:47:56;15.45;;;9.20;;
41446;SDS011;27185;52.040;4.490;2023-04-06T09:50:41;14.60;;;8.63;;
41446;SDS011;27185;52.040;4.490;2023-04-06T09:53:27;11.98;;;7.70;;
41446;SDS011;27185;52.040;4.490;2023-04-06T09:56:17;17.15;;;10.00;;
41446;SDS011;27185;52.040;4.490;2023-04-06T09:59:08;18.73;;;11.27;;
41446;SDS011;27185;52.040;4.490;2023-04-06T10:01:59;16.52;;;10.50;;
41446;SDS011;27185;52.040;4.490;2023-04-06T10:05:08;15.85;;;10.80;;
41446;SDS011;27185;52.040;4.490;2023-04-06T10:07:59;14.15;;;9.35;;
41446;SDS011;27185;52.040;4.490;2023-04-06T10:10:47;15.25;;;9.23;;
41446;SDS011;27185;52.040;4.490;2023-04-06T10:13:33;17.58;;;10.93;;
41446;SDS011;27185;52.040;4.490;2023-04-06T10:16:19;16.50;;;10.23;;
41446;SDS011;27185;52.040;4.490;2023-04-06T10:19:06;15.20;;;9.60;;
41446;SDS011;27185;52.040;4.490;2023-04-06T10:21:58;14.05;;;8.63;;
41446;SDS011;27185;52.040;4.490;2023-04-06T10:24:47;12.40;;;9.15;;
41446;SDS011;27185;52.040;4.490;2023-04-06T10:27:33;14.05;;;9.45;;
41446;SDS011;27185;52.040;4.490;2023-04-06T10:30:18;16.40;;;10.15;;
41446;SDS011;27185;52.040;4.490;2023-04-06T10:33:18;13.80;;;9.82;;
41446;SDS011;27185;52.040;4.490;2023-04-06T10:36:12;12.98;;;8.27;;
41446;SDS011;27185;52.040;4.490;2023-04-06T10:38:59;11.98;;;9.48;;
41446;SDS011;27185;52.040;4.490;2023-04-06T10:41:47;12.35;;;8.90;;
41446;SDS011;27185;52.040;4.490;2023-04-06T10:44:33;13.95;;;9.50;;
41446;SDS011;27185;52.040;4.490;2023-04-06T10:47:27;12.35;;;8.60;;
41446;SDS011;27185;52.040;4.490;2023-04-06T10:50:23;11.75;;;8.93;;
41446;SDS011;27185;52.040;4.490;2023-04-06T10:53:09;12.13;;;9.40;;
41446;SDS011;27185;52.040;4.490;2023-04-06T10:55:55;13.00;;;9.02;;
41446;SDS011;27185;52.040;4.490;2023-04-06T10:58:45;13.27;;;9.70;;
41446;SDS011;27185;52.040;4.490;2023-04-06T11:01:35;13.07;;;9.73;;
41446;SDS011;27185;52.040;4.490;2023-04-06T11:04:20;12.45;;;9.32;;
41446;SDS011;27185;52.040;4.490;2023-04-06T11:07:06;12.15;;;9.45;;
41446;SDS011;27185;52.040;4.490;2023-04-06T11:09:52;11.55;;;8.38;;
41446;SDS011;27185;52.040;4.490;2023-04-06T11:12:38;11.40;;;8.60;;
41446;SDS011;27185;52.040;4.490;2023-04-06T11:15:23;12.13;;;8.65;;
41446;SDS011;27185;52.040;4.490;2023-04-06T11:18:09;10.00;;;8.13;;
41446;SDS011;27185;52.040;4.490;2023-04-06T11:20:56;11.30;;;7.40;;
41446;SDS011;27185;52.040;4.490;2023-04-06T11:23:41;11.57;;;8.05;;
41446;SDS011;27185;52.040;4.490;2023-04-06T11:26:27;12.35;;;8.30;;
41446;SDS011;27185;52.040;4.490;2023-04-06T11:29:13;10.25;;;8.60;;
41446;SDS011;27185;52.040;4.490;2023-04-06T11:32:01;11.98;;;8.85;;
41446;SDS011;27185;52.040;4.490;2023-04-06T11:34:51;9.57;;;8.48;;
41446;SDS011;27185;52.040;4.490;2023-04-06T11:37:36;10.30;;;8.50;;
41446;SDS011;27185;52.040;4.490;2023-04-06T11:40:22;11.15;;;9.20;;
41446;SDS011;27185;52.040;4.490;2023-04-06T11:43:10;11.77;;;8.60;;
41446;SDS011;27185;52.040;4.490;2023-04-06T11:46:00;9.88;;;7.80;;
41446;SDS011;27185;52.040;4.490;2023-04-06T11:48:47;11.35;;;8.88;;
41446;SDS011;27185;52.040;4.490;2023-04-06T11:51:35;12.13;;;8.88;;
41446;SDS011;27185;52.040;4.490;2023-04-06T11:54:32;10.57;;;8.43;;
41446;SDS011;27185;52.040;4.490;2023-04-06T11:57:19;9.98;;;7.72;;
41446;SDS011;27185;52.040;4.490;2023-04-06T12:00:06;11.80;;;8.77;;
41446;SDS011;27185;52.040;4.490;2023-04-06T12:02:54;11.13;;;8.57;;
41446;SDS011;27185;52.040;4.490;2023-04-06T12:05:39;12.55;;;8.80;;
41446;SDS011;27185;52.040;4.490;2023-04-06T12:08:25;10.35;;;7.55;;
41446;SDS011;27185;52.040;4.490;2023-04-06T12:11:11;11.77;;;7.40;;
41446;SDS011;27185;52.040;4.490;2023-04-06T12:13:57;13.57;;;8.98;;
41446;SDS011;27185;52.040;4.490;2023-04-06T12:16:44;11.90;;;8.80;;
41446;SDS011;27185;52.040;4.490;2023-04-06T12:19:29;11.05;;;8.07;;
41446;SDS011;27185;52.040;4.490;2023-04-06T12:22:15;13.23;;;8.80;;
41446;SDS011;27185;52.040;4.490;2023-04-06T12:25:03;10.50;;;8.63;;
41446;SDS011;27185;52.040;4.490;2023-04-06T12:27:49;10.38;;;7.72;;
41446;SDS011;27185;52.040;4.490;2023-04-06T12:30:35;9.77;;;8.52;;
41446;SDS011;27185;52.040;4.490;2023-04-06T12:33:21;10.40;;;6.88;;
41446;SDS011;27185;52.040;4.490;2023-04-06T12:36:11;9.23;;;7.80;;
41446;SDS011;27185;52.040;4.490;2023-04-06T12:38:58;9.27;;;7.43;;
41446;SDS011;27185;52.040;4.490;2023-04-06T12:41:43;8.88;;;6.22;;
41446;SDS011;27185;52.040;4.490;2023-04-06T12:44:29;10.18;;;7.20;;
41446;SDS011;27185;52.040;4.490;2023-04-06T12:47:15;9.77;;;7.38;;
41446;SDS011;27185;52.040;4.490;2023-04-06T12:50:01;8.75;;;6.95;;
41446;SDS011;27185;52.040;4.490;2023-04-06T12:52:47;10.65;;;7.88;;
41446;SDS011;27185;52.040;4.490;2023-04-06T12:55:32;7.72;;;6.20;;
41446;SDS011;27185;52.040;4.490;2023-04-06T12:58:19;8.07;;;6.68;;
41446;SDS011;27185;52.040;4.490;2023-04-06T13:01:05;7.55;;;6.07;;
41446;SDS011;27185;52.040;4.490;2023-04-06T13:03:51;8.10;;;6.03;;
41446;SDS011;27185;52.040;4.490;2023-04-06T13:06:37;6.78;;;5.70;;
41446;SDS011;27185;52.040;4.490;2023-04-06T13:09:22;7.07;;;5.28;;
41446;SDS011;27185;52.040;4.490;2023-04-06T13:12:08;9.82;;;7.13;;
41446;SDS011;27185;52.040;4.490;2023-04-06T13:14:54;7.78;;;5.88;;
41446;SDS011;27185;52.040;4.490;2023-04-06T13:17:39;9.10;;;6.05;;
41446;SDS011;27185;52.040;4.490;2023-04-06T13:20:25;7.43;;;5.53;;
41446;SDS011;27185;52.040;4.490;2023-04-06T13:23:11;7.35;;;5.25;;
41446;SDS011;27185;52.040;4.490;2023-04-06T13:26:00;8.30;;;5.68;;
41446;SDS011;27185;52.040;4.490;2023-04-06T13:28:49;6.57;;;4.47;;
41446;SDS011;27185;52.040;4.490;2023-04-06T13:31:35;8.00;;;4.88;;
41446;SDS011;27185;52.040;4.490;2023-04-06T13:34:20;7.45;;;5.38;;
41446;SDS011;27185;52.040;4.490;2023-04-06T13:37:06;8.02;;;5.65;;
41446;SDS011;27185;52.040;4.490;2023-04-06T13:39:51;7.85;;;5.63;;
41446;SDS011;27185;52.040;4.490;2023-04-06T13:42:37;7.63;;;5.93;;
41446;SDS011;27185;52.040;4.490;2023-04-06T13:45:24;7.00;;;5.68;;
41446;SDS011;27185;52.040;4.490;2023-04-06T13:48:10;6.93;;;5.80;;
41446;SDS011;27185;52.040;4.490;2023-04-06T13:50:57;8.32;;;6.38;;
41446;SDS011;27185;52.040;4.490;2023-04-06T13:53:42;8.70;;;6.82;;
41446;SDS011;27185;52.040;4.490;2023-04-06T13:56:28;8.27;;;6.93;;
41446;SDS011;27185;52.040;4.490;2023-04-06T13:59:13;9.63;;;7.10;;
41446;SDS011;27185;52.040;4.490;2023-04-06T14:01:59;9.55;;;7.38;;
41446;SDS011;27185;52.040;4.490;2023-04-06T14:04:45;10.13;;;7.38;;
41446;SDS011;27185;52.040;4.490;2023-04-06T14:07:30;9.48;;;7.55;;
41446;SDS011;27185;52.040;4.490;2023-04-06T14:10:16;8.95;;;7.55;;
41446;SDS011;27185;52.040;4.490;2023-04-06T14:13:02;9.23;;;7.93;;
41446;SDS011;27185;52.040;4.490;2023-04-06T14:15:52;8.52;;;6.82;;
41446;SDS011;27185;52.040;4.490;2023-04-06T14:18:38;9.32;;;7.97;;
41446;SDS011;27185;52.040;4.490;2023-04-06T14:21:24;6.93;;;5.72;;
41446;SDS011;27185;52.040;4.490;2023-04-06T14:24:10;8.73;;;6.40;;
41446;SDS011;27185;52.040;4.490;2023-04-06T14:26:56;7.28;;;5.72;;
41446;SDS011;27185;52.040;4.490;2023-04-06T14:29:42;8.45;;;6.30;;
41446;SDS011;27185;52.040;4.490;2023-04-06T14:32:28;7.40;;;6.07;;
41446;SDS011;27185;52.040;4.490;2023-04-06T14:35:13;7.72;;;6.70;;
41446;SDS011;27185;52.040;4.490;2023-04-06T14:37:59;8.57;;;7.68;;
41446;SDS011;27185;52.040;4.490;2023-04-06T14:40:46;8.38;;;6.20;;
41446;SDS011;27185;52.040;4.490;2023-04-06T14:43:31;8.40;;;6.05;;
41446;SDS011;27185;52.040;4.490;2023-04-06T14:46:17;8.18;;;6.30;;
41446;SDS011;27185;52.040;4.490;2023-04-06T14:49:03;8.30;;;6.90;;
41446;SDS011;27185;52.040;4.490;2023-04-06T14:51:49;8.38;;;6.28;;
41446;SDS011;27185;52.040;4.490;2023-04-06T14:54:36;9.80;;;7.03;;
41446;SDS011;27185;52.040;4.490;2023-04-06T14:57:21;7.22;;;5.95;;
41446;SDS011;27185;52.040;4.490;2023-04-06T15:00:07;8.30;;;6.30;;
41446;SDS011;27185;52.040;4.490;2023-04-06T15:02:54;10.57;;;9.10;;
41446;SDS011;27185;52.040;4.490;2023-04-06T15:05:39;41.80;;;9.10;;
41446;SDS011;27185;52.040;4.490;2023-04-06T15:08:25;73.55;;;15.38;;
41446;SDS011;27185;52.040;4.490;2023-04-06T15:11:11;49.25;;;14.20;;
41446;SDS011;27185;52.040;4.490;2023-04-06T15:13:57;16.10;;;7.72;;
41446;SDS011;27185;52.040;4.490;2023-04-06T15:16:43;9.63;;;7.70;;
41446;SDS011;27185;52.040;4.490;2023-04-06T15:19:29;10.77;;;8.40;;
41446;SDS011;27185;52.040;4.490;2023-04-06T15:22:15;9.60;;;7.72;;
41446;SDS011;27185;52.040;4.490;2023-04-06T15:25:00;11.40;;;9.35;;
41446;SDS011;27185;52.040;4.490;2023-04-06T15:27:46;8.27;;;7.32;;
41446;SDS011;27185;52.040;4.490;2023-04-06T15:30:31;8.10;;;6.93;;
41446;SDS011;27185;52.040;4.490;2023-04-06T15:33:19;7.40;;;6.20;;
41446;SDS011;27185;52.040;4.490;2023-04-06T15:36:06;8.65;;;7.32;;
41446;SDS011;27185;52.040;4.490;2023-04-06T15:39:02;9.35;;;7.45;;
41446;SDS011;27185;52.040;4.490;2023-04-06T15:41:48;10.10;;;7.50;;
41446;SDS011;27185;52.040;4.490;2023-04-06T15:44:33;10.15;;;8.38;;
41446;SDS011;27185;52.040;4.490;2023-04-06T15:47:19;10.20;;;6.70;;
41446;SDS011;27185;52.040;4.490;2023-04-06T15:50:05;7.72;;;6.93;;
41446;SDS011;27185;52.040;4.490;2023-04-06T15:52:51;7.25;;;6.55;;
41446;SDS011;27185;52.040;4.490;2023-04-06T15:55:37;10.23;;;7.75;;
41446;SDS011;27185;52.040;4.490;2023-04-06T15:58:22;10.48;;;7.25;;
41446;SDS011;27185;52.040;4.490;2023-04-06T16:01:12;7.05;;;5.95;;
41446;SDS011;27185;52.040;4.490;2023-04-06T16:03:58;8.73;;;7.75;;
41446;SDS011;27185;52.040;4.490;2023-04-06T16:06:43;8.00;;;6.25;;
41446;SDS011;27185;52.040;4.490;2023-04-06T16:09:29;7.13;;;6.43;;
41446;SDS011;27185;52.040;4.490;2023-04-06T16:12:14;7.28;;;6.57;;
41446;SDS011;27185;52.040;4.490;2023-04-06T16:15:00;7.22;;;6.13;;
41446;SDS011;27185;52.040;4.490;2023-04-06T16:17:46;9.02;;;6.18;;
41446;SDS011;27185;52.040;4.490;2023-04-06T16:20:31;7.68;;;6.78;;
41446;SDS011;27185;52.040;4.490;2023-04-06T16:26:10;12.63;;;9.77;;